createdAt,value
2018-11-29T00:00:37.895Z,0.92
2018-11-29T00:03:07.723Z,0.92
2018-11-29T00:05:37.351Z,0.92
2018-11-29T00:08:06.886Z,0.97
2018-11-29T00:10:35.817Z,0.93
2018-11-29T00:13:05.077Z,0.90
2018-11-29T00:15:34.271Z,0.97
2018-11-29T00:18:03.258Z,0.98
2018-11-29T00:20:32.751Z,0.98
2018-11-29T00:23:01.586Z,1.03
2018-11-29T00:25:30.442Z,1.03
2018-11-29T00:27:59.253Z,0.99
2018-11-29T00:30:29.147Z,1.12
2018-11-29T00:32:57.964Z,1.03
2018-11-29T00:35:26.907Z,1.05
2018-11-29T00:37:55.835Z,1.02
2018-11-29T00:40:24.949Z,1.05
2018-11-29T00:42:54.388Z,1.03
2018-11-29T00:45:23.887Z,1.09
2018-11-29T00:47:53.062Z,1.04
2018-11-29T00:50:22.054Z,1.04
2018-11-29T00:52:51.215Z,1.09
2018-11-29T00:55:22.183Z,1.06
2018-11-29T00:57:51.449Z,1.02
2018-11-29T01:00:21.251Z,1.03
2018-11-29T01:02:50.269Z,0.98
2018-11-29T01:05:19.090Z,0.98
2018-11-29T01:07:48.009Z,1.03
2018-11-29T01:10:17.361Z,0.98
2018-11-29T01:12:46.563Z,0.99
2018-11-29T01:15:18.207Z,0.99
2018-11-29T01:17:48.065Z,0.97
2018-11-29T01:20:17.954Z,0.95
2018-11-29T01:22:46.784Z,0.98
2018-11-29T01:25:16.196Z,0.96
2018-11-29T01:27:46.133Z,0.99
2018-11-29T01:30:16.787Z,0.92
2018-11-29T01:32:45.672Z,0.99
2018-11-29T01:35:16.353Z,0.96
2018-11-29T01:37:45.136Z,0.97
2018-11-29T01:40:19.653Z,0.91
2018-11-29T01:42:50.624Z,0.95
2018-11-29T01:45:19.633Z,0.88
2018-11-29T01:47:48.381Z,0.90
2018-11-29T01:50:17.287Z,0.94
2018-11-29T01:52:46.250Z,0.94
2018-11-29T01:55:15.195Z,0.84
2018-11-29T01:57:44.161Z,0.88
2018-11-29T02:00:15.888Z,0.86
2018-11-29T02:02:47.724Z,0.94
2018-11-29T02:05:16.669Z,0.90
2018-11-29T02:07:45.482Z,0.94
2018-11-29T02:10:20.510Z,0.89
2018-11-29T02:12:49.315Z,0.93
2018-11-29T02:15:18.049Z,0.90
2018-11-29T02:17:46.832Z,0.94
2018-11-29T02:20:16.396Z,0.95
2018-11-29T02:22:45.174Z,0.93
2018-11-29T02:25:13.983Z,0.92
2018-11-29T02:27:42.815Z,0.92
2018-11-29T02:30:13.232Z,1.03
2018-11-29T02:32:42.077Z,0.95
2018-11-29T02:35:10.874Z,0.94
2018-11-29T02:37:39.746Z,0.93
2018-11-29T02:40:10.352Z,0.92
2018-11-29T02:42:39.246Z,0.96
2018-11-29T02:45:10.435Z,1.01
2018-11-29T02:47:39.261Z,0.98
2018-11-29T02:50:08.833Z,0.97
2018-11-29T02:52:37.698Z,1.06
2018-11-29T02:55:07.916Z,0.98
2018-11-29T02:57:36.814Z,1.01
2018-11-29T03:00:11.623Z,1.06
2018-11-29T03:02:40.462Z,1.09
2018-11-29T03:05:09.353Z,1.04
2018-11-29T03:07:38.392Z,1.07
2018-11-29T03:10:08.775Z,0.98
2018-11-29T03:12:37.563Z,1.04
2018-11-29T03:15:11.527Z,1.01
2018-11-29T03:17:41.259Z,1.01
2018-11-29T03:20:11.277Z,1.04
2018-11-29T03:22:40.062Z,1.02
2018-11-29T03:25:11.029Z,0.98
2018-11-29T03:27:39.967Z,0.99
2018-11-29T03:30:10.560Z,0.93
2018-11-29T03:32:39.362Z,0.97
2018-11-29T03:35:09.077Z,1.01
2018-11-29T03:37:37.883Z,1.07
2018-11-29T03:40:09.687Z,1.03
2018-11-29T03:42:38.460Z,1.03
2018-11-29T03:45:09.946Z,1.03
2018-11-29T03:47:38.890Z,1.08
2018-11-29T03:50:10.086Z,1.05
2018-11-29T03:52:38.890Z,1.03
2018-11-29T03:55:08.783Z,0.94
2018-11-29T03:57:37.968Z,1.04
2018-11-29T04:00:11.308Z,0.99
2018-11-29T04:02:40.066Z,1.02
2018-11-29T04:05:08.769Z,1.05
2018-11-29T04:07:37.553Z,1.07
2018-11-29T04:10:09.198Z,1.04
2018-11-29T04:12:38.121Z,1.07
2018-11-29T04:15:08.030Z,1.06
2018-11-29T04:17:40.705Z,1.13
2018-11-29T04:20:08.395Z,1.10
2018-11-29T04:22:37.376Z,1.16
2018-11-29T04:25:07.135Z,1.12
2018-11-29T04:27:36.281Z,1.03
2018-11-29T04:30:05.830Z,1.11
2018-11-29T04:32:34.747Z,1.12
2018-11-29T04:35:03.597Z,1.16
2018-11-29T04:37:32.359Z,1.21
2018-11-29T04:40:01.088Z,1.13
2018-11-29T04:42:30.114Z,1.17
2018-11-29T04:44:58.921Z,1.17
2018-11-29T04:47:27.658Z,1.27
2018-11-29T04:49:56.467Z,1.25
2018-11-29T04:52:25.193Z,1.27
2018-11-29T04:54:53.935Z,1.22
2018-11-29T04:57:22.730Z,1.29
2018-11-29T04:59:51.492Z,1.33
2018-11-29T05:02:21.094Z,1.33
2018-11-29T05:04:49.979Z,1.27
2018-11-29T05:07:18.773Z,1.33
2018-11-29T05:09:47.502Z,1.31
2018-11-29T05:12:16.347Z,1.29
2018-11-29T05:14:45.144Z,1.29
2018-11-29T05:17:13.926Z,1.29
2018-11-29T05:19:42.788Z,1.32
2018-11-29T05:22:11.565Z,1.33
2018-11-29T05:24:40.530Z,1.40
2018-11-29T05:27:13.443Z,1.34
2018-11-29T05:29:44.043Z,1.33
2018-11-29T05:32:12.958Z,1.42
2018-11-29T05:34:42.645Z,1.39
2018-11-29T05:37:11.726Z,1.37
2018-11-29T05:39:41.033Z,1.33
2018-11-29T05:42:10.398Z,1.33
2018-11-29T05:44:39.649Z,1.40
2018-11-29T05:47:09.518Z,1.41
2018-11-29T05:49:38.657Z,1.46
2018-11-29T05:52:07.474Z,1.42
2018-11-29T05:54:36.905Z,1.43
2018-11-29T05:57:05.904Z,1.42
2018-11-29T05:59:34.796Z,1.41
2018-11-29T06:02:03.572Z,1.50
2018-11-29T06:04:32.328Z,1.46
2018-11-29T06:07:01.181Z,1.47
2018-11-29T06:09:29.919Z,1.56
2018-11-29T06:11:58.855Z,1.55
2018-11-29T06:14:27.922Z,1.57
2018-11-29T06:16:57.226Z,1.64
2018-11-29T06:19:25.960Z,1.73
2018-11-29T06:21:54.811Z,1.58
2018-11-29T06:24:23.644Z,1.69
2018-11-29T06:26:52.428Z,1.75
2018-11-29T06:29:21.241Z,1.62
2018-11-29T06:31:50.028Z,1.66
2018-11-29T06:34:18.988Z,1.67
2018-11-29T06:36:47.845Z,1.70
2018-11-29T06:39:16.602Z,1.63
2018-11-29T06:41:45.688Z,1.69
2018-11-29T06:44:14.488Z,1.53
2018-11-29T06:46:43.304Z,1.40
2018-11-29T06:49:12.195Z,1.40
2018-11-29T06:51:43.136Z,1.38
2018-11-29T06:54:13.228Z,1.37
2018-11-29T06:56:42.735Z,1.38
2018-11-29T06:59:11.506Z,1.42
2018-11-29T07:01:41.985Z,1.46
2018-11-29T07:04:10.892Z,1.45
2018-11-29T07:06:40.215Z,1.54
2018-11-29T07:09:09.799Z,1.53
2018-11-29T07:11:42.497Z,1.45
2018-11-29T07:14:12.645Z,1.53
2018-11-29T07:16:41.496Z,1.55
2018-11-29T07:19:14.883Z,1.55
2018-11-29T07:21:49.774Z,1.65
2018-11-29T07:24:21.999Z,1.65
2018-11-29T07:26:51.458Z,1.67
2018-11-29T07:29:21.099Z,1.66
2018-11-29T07:31:50.133Z,1.75
2018-11-29T07:34:20.306Z,1.73
2018-11-29T07:36:52.101Z,1.69
2018-11-29T07:39:21.792Z,1.62
2018-11-29T07:41:50.826Z,1.65
2018-11-29T07:44:19.766Z,1.70
2018-11-29T07:46:49.195Z,1.84
2018-11-29T07:49:18.359Z,1.77
2018-11-29T07:51:47.297Z,1.77
2018-11-29T07:54:16.145Z,1.84
2018-11-29T07:56:45.067Z,1.83
2018-11-29T07:59:13.831Z,1.80
2018-11-29T08:01:43.574Z,1.79
2018-11-29T08:04:12.744Z,1.87
2018-11-29T08:06:44.235Z,1.85
2018-11-29T08:09:13.067Z,1.84
2018-11-29T08:11:41.903Z,1.90
2018-11-29T08:14:11.042Z,1.86
2018-11-29T08:16:40.233Z,1.83
2018-11-29T08:19:09.084Z,1.82
2018-11-29T08:21:39.857Z,1.84
2018-11-29T08:24:11.489Z,1.90
2018-11-29T08:26:42.121Z,2.02
2018-11-29T08:29:36.572Z,2.06
2018-11-29T08:32:11.249Z,2.02
2018-11-29T08:34:40.634Z,2.03
2018-11-29T08:37:11.297Z,2.02
2018-11-29T08:39:40.042Z,2.08
2018-11-29T08:42:09.425Z,2.05
2018-11-29T08:44:38.277Z,1.93
2018-11-29T08:47:25.143Z,2.02
2018-11-29T08:49:55.658Z,2.07
2018-11-29T08:52:24.405Z,2.05
2018-11-29T08:54:55.350Z,2.05
2018-11-29T08:57:24.271Z,2.07
2018-11-29T08:59:53.550Z,2.16
2018-11-29T09:02:22.495Z,2.17
2018-11-29T09:04:51.291Z,2.12
2018-11-29T09:07:20.070Z,2.11
2018-11-29T09:09:48.913Z,2.11
2018-11-29T09:12:19.266Z,2.20
2018-11-29T09:14:50.905Z,2.14
2018-11-29T09:17:19.901Z,2.19
2018-11-29T09:19:49.351Z,2.13
2018-11-29T09:22:19.758Z,2.21
2018-11-29T09:24:48.730Z,2.19
2018-11-29T09:27:18.258Z,2.25
2018-11-29T09:29:47.243Z,2.23
2018-11-29T09:32:17.495Z,2.15
2018-11-29T09:34:46.871Z,2.13
2018-11-29T09:37:15.860Z,2.08
2018-11-29T09:39:47.208Z,2.11
2018-11-29T09:42:16.193Z,2.08
2018-11-29T09:44:44.997Z,2.09
2018-11-29T09:47:14.038Z,2.13
2018-11-29T09:49:42.973Z,2.10
2018-11-29T09:52:11.703Z,2.08
2018-11-29T09:54:40.504Z,2.14
2018-11-29T09:57:09.829Z,2.16
2018-11-29T09:59:38.632Z,2.23
2018-11-29T10:02:07.460Z,2.21
2018-11-29T10:04:36.234Z,2.31
2018-11-29T10:07:05.249Z,2.32
2018-11-29T10:09:34.575Z,2.32
2018-11-29T10:12:04.332Z,2.37
2018-11-29T10:14:33.216Z,2.36
2018-11-29T10:17:02.102Z,2.44
2018-11-29T10:19:31.102Z,2.42
2018-11-29T10:21:59.945Z,2.46
2018-11-29T10:24:29.536Z,2.45
2018-11-29T10:26:58.459Z,2.49
2018-11-29T10:29:27.273Z,2.47
2018-11-29T10:31:56.435Z,2.64
2018-11-29T10:34:25.892Z,2.64
2018-11-29T10:36:54.725Z,2.66
2018-11-29T10:39:23.698Z,2.68
2018-11-29T10:41:54.140Z,2.62
2018-11-29T10:44:22.893Z,2.61
2018-11-29T10:46:51.719Z,2.65
2018-11-29T10:49:21.539Z,2.69
2018-11-29T10:51:50.396Z,2.70
2018-11-29T10:54:19.440Z,2.72
2018-11-29T10:56:48.243Z,2.74
2018-11-29T10:59:16.936Z,2.81
2018-11-29T11:01:49.955Z,2.81
2018-11-29T11:04:18.888Z,2.78
2018-11-29T11:06:47.810Z,2.80
2018-11-29T11:09:16.789Z,2.85
2018-11-29T11:11:46.516Z,2.94
2018-11-29T11:14:15.397Z,2.96
2018-11-29T11:16:44.278Z,2.93
2018-11-29T11:19:12.994Z,3.02
2018-11-29T11:21:42.173Z,2.97
2018-11-29T11:24:11.840Z,2.91
2018-11-29T11:26:41.242Z,2.90
2018-11-29T11:29:10.063Z,2.98
2018-11-29T11:31:38.916Z,3.01
2018-11-29T11:34:07.805Z,2.99
2018-11-29T11:36:36.879Z,3.11
2018-11-29T11:39:07.703Z,3.02
2018-11-29T11:41:36.667Z,3.17
2018-11-29T11:44:05.479Z,3.17
2018-11-29T11:46:35.104Z,3.18
2018-11-29T11:49:04.171Z,3.15
2018-11-29T11:51:32.924Z,3.24
2018-11-29T11:54:01.727Z,3.30
2018-11-29T11:56:30.559Z,3.21
2018-11-29T11:59:00.570Z,3.17
2018-11-29T12:01:29.634Z,3.27
2018-11-29T12:03:59.930Z,3.31
2018-11-29T12:06:27.563Z,3.31
2018-11-29T12:08:56.669Z,3.27
2018-11-29T12:11:25.839Z,3.35
2018-11-29T12:13:55.345Z,3.40
2018-11-29T12:16:24.127Z,3.39
2018-11-29T12:18:52.843Z,3.43
2018-11-29T12:21:21.640Z,3.45
2018-11-29T12:23:50.366Z,3.44
2018-11-29T12:26:19.458Z,3.40
2018-11-29T12:28:48.238Z,3.36
2018-11-29T12:31:17.027Z,3.33
2018-11-29T12:33:45.762Z,3.33
2018-11-29T12:36:14.526Z,3.33
2018-11-29T12:38:43.897Z,3.30
2018-11-29T12:41:12.646Z,3.33
2018-11-29T12:43:41.560Z,3.39
2018-11-29T12:46:10.397Z,3.32
2018-11-29T12:48:39.699Z,3.34
2018-11-29T12:51:10.450Z,3.36
2018-11-29T12:53:41.093Z,3.30
2018-11-29T12:56:11.636Z,3.35
2018-11-29T12:58:41.125Z,3.34
2018-11-29T13:01:10.194Z,3.41
2018-11-29T13:03:40.539Z,3.41
2018-11-29T13:06:09.332Z,3.41
2018-11-29T13:08:38.267Z,3.33
2018-11-29T13:11:10.705Z,3.35
2018-11-29T13:13:36.679Z,3.36
2018-11-29T13:16:05.980Z,3.34
2018-11-29T13:18:35.403Z,3.32
2018-11-29T13:21:05.055Z,3.32
2018-11-29T13:23:34.077Z,3.32
2018-11-29T13:26:02.859Z,3.30
2018-11-29T13:28:33.495Z,3.38
2018-11-29T13:31:02.913Z,3.28
2018-11-29T13:33:33.077Z,3.32
2018-11-29T13:36:01.682Z,3.29
2018-11-29T13:38:31.114Z,3.28
2018-11-29T13:41:00.514Z,3.31
2018-11-29T13:43:30.570Z,3.32
2018-11-29T13:46:00.153Z,3.20
2018-11-29T13:48:29.358Z,3.16
2018-11-29T13:50:58.307Z,3.14
2018-11-29T13:53:34.003Z,3.06
2018-11-29T13:56:02.901Z,3.02
2018-11-29T13:58:32.244Z,3.02
2018-11-29T14:01:01.150Z,3.00
2018-11-29T14:03:32.004Z,3.06
2018-11-29T14:06:01.045Z,2.91
2018-11-29T14:08:30.101Z,3.02
2018-11-29T14:10:59.170Z,3.03
2018-11-29T14:13:28.026Z,3.00
2018-11-29T14:15:57.310Z,2.98
2018-11-29T14:18:26.858Z,2.91
2018-11-29T14:20:55.711Z,2.96
2018-11-29T14:23:25.085Z,3.01
2018-11-29T14:25:54.804Z,3.01
2018-11-29T14:28:23.756Z,2.85
2018-11-29T14:30:52.636Z,2.87
2018-11-29T14:33:23.352Z,2.82
2018-11-29T14:35:52.381Z,2.80
2018-11-29T14:38:22.606Z,2.89
2018-11-29T14:40:51.622Z,2.76
2018-11-29T14:43:20.737Z,2.73
2018-11-29T14:45:49.799Z,2.67
2018-11-29T14:48:19.304Z,2.78
2018-11-29T14:50:48.510Z,2.62
2018-11-29T14:53:17.331Z,2.62
2018-11-29T14:55:48.842Z,2.56
2018-11-29T14:58:19.791Z,2.60
2018-11-29T15:00:47.867Z,2.52
2018-11-29T15:03:20.771Z,2.44
2018-11-29T15:05:51.473Z,2.45
2018-11-29T15:08:20.790Z,2.42
2018-11-29T15:10:50.121Z,2.46
2018-11-29T15:13:19.099Z,2.42
2018-11-29T15:15:49.004Z,2.38
2018-11-29T15:18:17.919Z,2.43
2018-11-29T15:20:48.615Z,2.46
2018-11-29T15:23:18.619Z,2.47
2018-11-29T15:25:47.423Z,2.49
2018-11-29T15:28:16.214Z,2.53
2018-11-29T15:30:44.951Z,2.52
2018-11-29T15:33:13.642Z,2.53
2018-11-29T15:35:42.407Z,2.55
2018-11-29T15:38:11.782Z,2.55
2018-11-29T15:40:40.668Z,2.60
2018-11-29T15:43:10.312Z,2.57
2018-11-29T15:45:39.258Z,2.60
2018-11-29T15:48:08.195Z,2.64
2018-11-29T15:50:36.987Z,2.60
2018-11-29T15:53:06.886Z,2.67
2018-11-29T15:55:36.241Z,3.17
2018-11-29T15:58:05.377Z,2.99
2018-11-29T16:00:34.419Z,3.01
2018-11-29T16:03:05.399Z,2.95
2018-11-29T16:05:34.254Z,2.91
2018-11-29T16:08:03.079Z,3.02
2018-11-29T16:10:32.769Z,3.01
2018-11-29T16:13:01.666Z,3.02
2018-11-29T16:15:30.535Z,3.10
2018-11-29T16:17:59.431Z,3.06
2018-11-29T16:20:29.735Z,3.12
2018-11-29T16:22:58.587Z,3.10
2018-11-29T16:25:27.459Z,3.20
2018-11-29T16:27:56.488Z,3.19
2018-11-29T16:30:31.765Z,3.21
2018-11-29T16:33:05.882Z,3.24
2018-11-29T16:35:34.713Z,3.21
2018-11-29T16:38:03.680Z,3.28
2018-11-29T16:40:32.603Z,3.24
2018-11-29T16:43:01.462Z,3.33
2018-11-29T16:45:30.349Z,3.38
2018-11-29T16:47:59.275Z,3.28
2018-11-29T16:50:28.108Z,3.41
2018-11-29T16:52:56.871Z,3.32
2018-11-29T16:55:25.974Z,3.31
2018-11-29T16:57:57.945Z,3.36
2018-11-29T17:00:26.800Z,3.39
2018-11-29T17:02:55.843Z,3.45
2018-11-29T17:05:24.683Z,3.46
2018-11-29T17:07:55.265Z,3.46
2018-11-29T17:10:24.111Z,3.46
2018-11-29T17:12:55.481Z,3.41
2018-11-29T17:15:24.512Z,3.49
2018-11-29T17:17:53.504Z,3.38
2018-11-29T17:20:22.420Z,3.41
2018-11-29T17:22:51.777Z,3.43
2018-11-29T17:25:20.602Z,3.41
2018-11-29T17:27:49.334Z,3.38
2018-11-29T17:30:25.100Z,3.42
2018-11-29T17:32:54.968Z,3.36
2018-11-29T17:35:24.904Z,3.36
2018-11-29T17:37:54.972Z,3.39
2018-11-29T17:40:24.149Z,3.35
2018-11-29T17:42:54.569Z,3.31
2018-11-29T17:45:26.270Z,3.33
2018-11-29T17:47:56.681Z,3.35
2018-11-29T17:50:28.829Z,3.41
2018-11-29T17:52:57.593Z,3.35
2018-11-29T17:55:26.386Z,3.42
2018-11-29T17:57:55.059Z,3.38
2018-11-29T18:00:29.012Z,3.35
2018-11-29T18:02:58.141Z,3.34
2018-11-29T18:05:26.951Z,3.35
2018-11-29T18:07:55.834Z,3.27
2018-11-29T18:10:26.826Z,3.31
2018-11-29T18:13:00.690Z,3.23
2018-11-29T18:15:31.758Z,3.20
2018-11-29T18:18:00.525Z,3.29
2018-11-29T18:20:29.412Z,3.23
2018-11-29T18:22:58.348Z,3.24
2018-11-29T18:25:27.260Z,3.23
2018-11-29T18:27:56.536Z,3.30
2018-11-29T18:30:25.611Z,3.21
2018-11-29T18:32:54.378Z,3.27
2018-11-29T18:35:24.411Z,3.29
2018-11-29T18:37:53.165Z,3.34
2018-11-29T18:40:22.473Z,3.32
2018-11-29T18:42:56.361Z,3.43
2018-11-29T18:45:25.197Z,3.39
2018-11-29T18:47:54.620Z,3.39
2018-11-29T18:50:25.285Z,3.45
2018-11-29T18:52:54.405Z,3.47
2018-11-29T18:55:25.082Z,4.12
2018-11-29T18:57:55.009Z,3.79
2018-11-29T19:00:26.887Z,3.54
2018-11-29T19:02:57.069Z,3.38
2018-11-29T19:05:25.154Z,3.25
2018-11-29T19:07:53.878Z,3.27
2018-11-29T19:10:23.002Z,3.38
2018-11-29T19:13:10.680Z,3.20
2018-11-29T19:15:39.456Z,3.24
2018-11-29T19:18:10.661Z,3.24
2018-11-29T19:20:38.118Z,3.26
2018-11-29T19:23:06.827Z,3.34
2018-11-29T19:25:35.862Z,3.38
2018-11-29T19:28:05.062Z,3.30
2018-11-29T19:30:34.073Z,3.30
2018-11-29T19:33:09.274Z,3.32
2018-11-29T19:35:38.034Z,3.35
2018-11-29T19:38:06.975Z,3.33
2018-11-29T19:40:35.880Z,3.35
2018-11-29T19:43:05.194Z,3.36
2018-11-29T19:45:34.025Z,3.41
2018-11-29T19:48:02.884Z,3.41
2018-11-29T19:50:31.746Z,3.43
2018-11-29T19:53:01.124Z,3.39
2018-11-29T19:55:32.156Z,3.46
2018-11-29T19:58:00.969Z,3.55
2018-11-29T20:00:30.024Z,3.61
2018-11-29T20:02:59.067Z,3.54
2018-11-29T20:05:27.879Z,3.54
2018-11-29T20:07:57.157Z,3.61
2018-11-29T20:10:26.972Z,3.62
2018-11-29T20:13:02.282Z,3.57
2018-11-29T20:15:31.236Z,3.55
2018-11-29T20:18:00.740Z,3.53
2018-11-29T20:20:30.378Z,3.48
2018-11-29T20:22:59.182Z,3.31
2018-11-29T20:25:28.149Z,3.26
2018-11-29T20:27:57.655Z,3.12
2018-11-29T20:30:26.622Z,3.08
2018-11-29T20:32:55.934Z,2.87
2018-11-29T20:35:24.823Z,2.79
2018-11-29T20:37:56.292Z,2.74
2018-11-29T20:40:28.750Z,2.67
2018-11-29T20:42:58.605Z,2.67
2018-11-29T20:45:33.750Z,2.69
2018-11-29T20:48:06.486Z,2.78
2018-11-29T20:50:35.771Z,2.73
2018-11-29T20:53:04.120Z,2.80
2018-11-29T20:55:32.953Z,2.82
2018-11-29T20:58:01.723Z,2.78
2018-11-29T21:00:30.484Z,2.80
2018-11-29T21:02:59.374Z,2.73
2018-11-29T21:05:28.222Z,2.64
2018-11-29T21:07:59.715Z,2.60
2018-11-29T21:10:28.585Z,2.53
2018-11-29T21:13:01.636Z,2.57
2018-11-29T21:15:30.746Z,2.51
2018-11-29T21:17:59.680Z,2.54
2018-11-29T21:20:28.497Z,2.56
2018-11-29T21:22:57.339Z,2.64
2018-11-29T21:25:26.385Z,2.67
2018-11-29T21:27:55.172Z,2.67
2018-11-29T21:30:24.003Z,2.59
2018-11-29T21:32:52.865Z,2.61
2018-11-29T21:35:22.974Z,2.72
2018-11-29T21:37:52.807Z,2.76
2018-11-29T21:40:24.691Z,2.70
2018-11-29T21:42:54.654Z,2.71
2018-11-29T21:45:23.932Z,2.78
2018-11-29T21:47:52.764Z,2.79
2018-11-29T21:50:21.586Z,2.86
2018-11-29T21:52:50.396Z,2.95
2018-11-29T21:55:20.002Z,2.98
2018-11-29T21:57:48.815Z,2.95
2018-11-29T22:00:20.706Z,2.88
2018-11-29T22:02:51.043Z,2.96
2018-11-29T22:05:21.386Z,2.94
2018-11-29T22:07:50.309Z,3.03
2018-11-29T22:10:19.123Z,3.11
2018-11-29T22:12:48.722Z,3.13
2018-11-29T22:15:17.706Z,3.06
2018-11-29T22:18:23.802Z,3.01
2018-11-29T22:20:56.138Z,3.03
2018-11-29T22:23:26.226Z,2.97
2018-11-29T22:25:56.559Z,2.89
2018-11-29T22:28:25.535Z,2.97
2018-11-29T22:30:55.061Z,2.95
2018-11-29T22:33:23.888Z,2.85
2018-11-29T22:35:54.694Z,2.84
2018-11-29T22:38:24.262Z,2.82
2018-11-29T22:40:53.220Z,2.84
2018-11-29T22:43:25.037Z,2.76
2018-11-29T22:45:53.903Z,2.76
2018-11-29T22:48:22.786Z,2.74
2018-11-29T22:50:51.617Z,2.79
2018-11-29T22:53:20.370Z,3.55
2018-11-29T22:55:49.298Z,3.36
2018-11-29T22:58:21.604Z,2.95
2018-11-29T23:00:53.044Z,2.91
2018-11-29T23:03:22.214Z,2.94
2018-11-29T23:05:51.698Z,2.84
2018-11-29T23:08:20.521Z,2.85
2018-11-29T23:10:49.994Z,2.84
2018-11-29T23:13:18.793Z,2.86
2018-11-29T23:15:47.665Z,2.85
2018-11-29T23:18:16.471Z,2.78
2018-11-29T23:20:45.350Z,2.75
2018-11-29T23:23:14.150Z,2.78
2018-11-29T23:25:43.046Z,2.78
2018-11-29T23:28:11.822Z,2.83
2018-11-29T23:30:40.623Z,2.94
2018-11-29T23:33:09.508Z,2.84
2018-11-29T23:35:38.404Z,2.81
2018-11-29T23:38:07.807Z,2.87
2018-11-29T23:40:37.017Z,2.82
2018-11-29T23:43:05.873Z,2.88
2018-11-29T23:45:35.407Z,2.93
2018-11-29T23:48:04.384Z,2.93
2018-11-29T23:50:37.179Z,2.89
2018-11-29T23:53:06.211Z,2.93
2018-11-29T23:55:35.148Z,2.94
2018-11-29T23:58:04.126Z,2.88
